Terminal Aerodrome Forecast
Issued by NWS

Home | Current Version | Previous Version | Graphics & Text | Print | Product List | Glossary On
Versions: 1 2 3 4 5 6 7 8 9 10 11 12 13 14 15 16 17 18 19 20 21
000
FTUS43 KICT 222320
TAFHUT
TAF
KHUT 222320Z 2300/2324 12012KT P6SM OVC025
      TEMPO 2307/2310 5SM -DZ BR OVC008
     FM231000 15012KT 4SM -DZ BR OVC004
     FM231500 16017G25KT P6SM OVC008
     FM231800 17022G30KT P6SM BKN020=

USA.gov is the U.S. government's official web portal to all federal, state and local government web resources and services.